createdAt,value
2022-08-23T00:00:22.898Z,15.20
2022-08-23T00:10:29.090Z,15.40
2022-08-23T00:20:34.567Z,14.40
2022-08-23T00:30:39.261Z,15.10
2022-08-23T00:40:47.479Z,15.40
2022-08-23T00:50:59.081Z,15.60
2022-08-23T01:01:06.333Z,15.70
2022-08-23T01:11:20.441Z,15.80
2022-08-23T01:21:36.577Z,15.90
2022-08-23T01:31:46.449Z,15.80
2022-08-23T01:41:51.548Z,15.80
2022-08-23T01:51:57.266Z,15.90
2022-08-23T02:02:01.937Z,15.90
2022-08-23T02:12:07.772Z,16.00
2022-08-23T02:22:13.451Z,16.00
2022-08-23T02:32:20.487Z,15.90
2022-08-23T02:42:24.713Z,15.80
2022-08-23T02:52:30.081Z,15.90
2022-08-23T03:02:33.864Z,16.00
2022-08-23T03:12:40.186Z,16.00
2022-08-23T03:22:48.369Z,16.00
2022-08-23T03:33:00.619Z,16.00
2022-08-23T03:43:06.372Z,16.00
2022-08-23T03:53:13.179Z,16.10
2022-08-23T04:03:19.239Z,16.20
2022-08-23T04:13:39.851Z,16.20
2022-08-23T04:23:44.751Z,16.30
2022-08-23T04:33:52.707Z,16.20
2022-08-23T04:43:57.511Z,16.30
2022-08-23T04:54:05.777Z,16.50
2022-08-23T05:04:19.831Z,16.70
2022-08-23T05:14:25.344Z,16.90
2022-08-23T05:24:29.419Z,17.20
2022-08-23T05:34:34.927Z,17.40
2022-08-23T05:44:46.450Z,17.40
2022-08-23T05:54:53.932Z,17.60
2022-08-23T06:05:14.028Z,17.70
2022-08-23T06:15:20.716Z,18.00
2022-08-23T06:25:25.355Z,18.20
2022-08-23T06:35:39.210Z,18.30
2022-08-23T06:46:14.451Z,19.00
2022-08-23T06:56:23.483Z,19.80
2022-08-23T07:06:40.901Z,19.90
2022-08-23T07:16:50.180Z,20.50
2022-08-23T07:26:54.273Z,20.70
2022-08-23T07:37:01.764Z,20.90
2022-08-23T07:47:06.895Z,22.10
2022-08-23T07:57:12.303Z,22.80
2022-08-23T08:07:42.122Z,23.40
2022-08-23T08:17:48.999Z,24.80
2022-08-23T08:27:52.548Z,26.20
2022-08-23T08:37:58.240Z,25.40
2022-08-23T08:48:13.172Z,26.20
2022-08-23T08:58:47.432Z,27.00
2022-08-23T09:09:12.073Z,27.10
2022-08-23T09:19:17.742Z,29.20
2022-08-23T09:29:27.851Z,30.10
2022-08-23T09:39:34.732Z,29.60
2022-08-23T09:49:48.452Z,34.30
2022-08-23T09:59:56.194Z,33.70
2022-08-23T10:10:25.720Z,32.00
2022-08-23T10:20:42.216Z,35.90
2022-08-23T10:30:55.174Z,40.60
2022-08-23T10:41:13.902Z,35.60
2022-08-23T10:51:31.480Z,36.20
2022-08-23T11:01:50.602Z,38.40
2022-08-23T11:12:17.530Z,35.10
2022-08-23T11:22:25.646Z,34.60
2022-08-23T11:32:44.362Z,36.30
2022-08-23T11:42:54.790Z,38.10
2022-08-23T11:53:32.464Z,39.00
2022-08-23T12:03:56.242Z,37.50
2022-08-23T12:14:03.813Z,36.10
2022-08-23T12:24:25.697Z,42.40
2022-08-23T12:34:38.770Z,45.50
2022-08-23T12:44:47.393Z,47.70
2022-08-23T12:54:55.165Z,45.70
2022-08-23T13:05:13.216Z,43.10
2022-08-23T13:15:48.396Z,39.10
2022-08-23T13:25:53.351Z,35.90
2022-08-23T13:36:13.846Z,34.00
2022-08-23T13:46:23.061Z,33.00
2022-08-23T13:56:28.918Z,31.50
2022-08-23T14:06:33.831Z,31.10
2022-08-23T14:16:40.103Z,30.40
2022-08-23T14:26:51.779Z,29.90
2022-08-23T14:47:21.697Z,29.30
2022-08-23T14:57:25.461Z,28.70
2022-08-23T15:07:30.861Z,28.30
2022-08-23T15:17:39.276Z,28.00
2022-08-23T15:27:45.768Z,27.60
2022-08-23T15:37:49.765Z,27.30
2022-08-23T15:47:58.937Z,27.00
2022-08-23T15:58:02.710Z,26.30
2022-08-23T16:08:10.221Z,25.80
2022-08-23T16:18:14.205Z,25.20
2022-08-23T16:28:19.410Z,24.70
2022-08-23T16:38:23.682Z,24.40
2022-08-23T17:39:43.558Z,21.70
2022-08-23T17:49:49.496Z,21.00
2022-08-23T17:59:55.269Z,20.50
2022-08-23T18:09:59.485Z,20.10
2022-08-23T18:20:06.300Z,19.60
2022-08-23T18:30:12.560Z,19.30
2022-08-23T18:40:17.608Z,19.00
2022-08-23T18:50:21.430Z,18.70
2022-08-23T19:00:26.658Z,18.50
2022-08-23T19:10:30.466Z,18.30
2022-08-23T19:20:37.333Z,18.20
2022-08-23T19:30:41.475Z,18.50
2022-08-23T19:40:47.330Z,18.60
2022-08-23T19:50:51.308Z,18.60
2022-08-23T20:00:56.598Z,18.40
2022-08-23T20:11:01.587Z,18.20
2022-08-23T20:21:06.878Z,17.90
2022-08-23T20:31:18.862Z,17.90
2022-08-23T20:41:23.849Z,17.90
2022-08-23T20:51:30.733Z,17.90
2022-08-23T21:01:42.005Z,17.90
2022-08-23T21:11:46.226Z,18.00
2022-08-23T21:21:51.401Z,18.10
2022-08-23T21:31:55.054Z,18.20
2022-08-23T21:42:00.685Z,18.30
2022-08-23T21:52:05.379Z,18.30
2022-08-23T22:02:11.078Z,18.30
2022-08-23T22:12:15.374Z,18.40
2022-08-23T22:22:20.373Z,18.40
2022-08-23T22:32:24.442Z,18.40
2022-08-23T22:42:29.611Z,18.40
2022-08-23T22:52:33.533Z,18.40
2022-08-23T23:02:38.988Z,18.40
2022-08-23T23:12:44.551Z,18.40
2022-08-23T23:22:51.543Z,18.30
2022-08-23T23:32:55.321Z,18.30
2022-08-23T23:43:00.572Z,18.30
2022-08-23T23:53:04.547Z,18.30
